createdAt,value
2018-11-05T00:02:23.873Z,582.25
2018-11-05T00:04:54.316Z,587.23
2018-11-05T00:07:23.838Z,571.55
2018-11-05T00:09:54.034Z,587.60
2018-11-05T00:12:23.535Z,572.25
2018-11-05T00:14:53.794Z,576.45
2018-11-05T00:17:23.327Z,579.92
2018-11-05T00:19:52.764Z,578.62
2018-11-05T00:22:22.338Z,575.65
2018-11-05T00:24:51.783Z,578.15
2018-11-05T00:27:21.206Z,578.93
2018-11-05T00:29:50.768Z,577.23
2018-11-05T00:32:20.253Z,580.73
2018-11-05T00:34:49.691Z,572.83
2018-11-05T00:37:19.180Z,577.35
2018-11-05T00:39:48.657Z,570.50
2018-11-05T00:42:18.207Z,567.33
2018-11-05T00:44:51.488Z,573.28
2018-11-05T00:47:20.894Z,570.97
2018-11-05T00:49:50.429Z,572.65
2018-11-05T00:52:20.550Z,573.05
2018-11-05T00:54:50.103Z,573.97
2018-11-05T00:57:19.709Z,569.40
2018-11-05T00:59:49.190Z,571.85
2018-11-05T01:02:18.732Z,571.77
2018-11-05T01:04:48.128Z,572.05
2018-11-05T01:07:17.566Z,575.00
2018-11-05T01:09:47.082Z,575.35
2018-11-05T01:12:16.581Z,575.30
2018-11-05T01:14:46.023Z,582.65
2018-11-05T01:17:15.494Z,583.83
2018-11-05T01:19:45.028Z,578.80
2018-11-05T01:22:14.507Z,582.42
2018-11-05T01:24:45.145Z,580.77
2018-11-05T01:27:14.618Z,586.23
2018-11-05T01:29:44.133Z,591.95
2018-11-05T01:32:13.644Z,587.98
2018-11-05T01:34:43.021Z,589.78
2018-11-05T01:37:12.552Z,586.95
2018-11-05T01:39:41.973Z,600.17
2018-11-05T01:42:12.369Z,590.52
2018-11-05T01:44:41.879Z,589.80
2018-11-05T01:47:11.581Z,591.23
2018-11-05T01:49:40.978Z,590.92
2018-11-05T01:52:10.390Z,595.20
2018-11-05T01:54:40.428Z,589.63
2018-11-05T01:57:09.851Z,589.97
2018-11-05T01:59:39.340Z,588.10
2018-11-05T02:02:08.939Z,598.97
2018-11-05T02:04:39.455Z,594.05
2018-11-05T02:07:08.971Z,586.35
2018-11-05T02:09:38.493Z,595.88
2018-11-05T02:12:11.962Z,600.17
2018-11-05T02:14:41.520Z,597.70
2018-11-05T02:17:11.072Z,599.52
2018-11-05T02:19:42.624Z,603.00
2018-11-05T02:22:12.441Z,600.95
2018-11-05T02:24:42.953Z,604.70
2018-11-05T02:27:13.104Z,603.25
2018-11-05T02:29:42.636Z,612.17
2018-11-05T02:32:12.210Z,625.95
2018-11-05T02:34:41.600Z,619.75
2018-11-05T02:37:11.044Z,618.15
2018-11-05T02:39:40.547Z,620.27
2018-11-05T02:42:10.135Z,632.10
2018-11-05T02:44:41.635Z,624.15
2018-11-05T02:47:11.114Z,631.35
2018-11-05T02:49:40.641Z,624.03
2018-11-05T02:52:10.036Z,629.53
2018-11-05T02:54:39.532Z,630.08
2018-11-05T02:57:08.964Z,631.60
2018-11-05T02:59:38.390Z,624.48
2018-11-05T03:02:07.810Z,613.85
2018-11-05T03:04:38.059Z,615.08
2018-11-05T03:07:07.557Z,631.67
2018-11-05T03:09:37.097Z,625.60
2018-11-05T03:12:06.954Z,629.45
2018-11-05T03:14:36.462Z,635.70
2018-11-05T03:17:06.282Z,634.77
2018-11-05T03:19:36.347Z,641.42
2018-11-05T03:22:06.173Z,628.27
2018-11-05T03:24:35.696Z,643.60
2018-11-05T03:27:05.623Z,642.12
2018-11-05T03:29:35.152Z,638.50
2018-11-05T03:32:04.624Z,641.17
2018-11-05T03:34:34.145Z,635.60
2018-11-05T03:37:03.783Z,634.70
2018-11-05T03:39:33.338Z,638.33
2018-11-05T03:42:03.866Z,642.03
2018-11-05T03:44:33.326Z,648.75
2018-11-05T03:47:02.795Z,638.95
2018-11-05T03:49:33.232Z,640.30
2018-11-05T03:52:03.753Z,644.55
2018-11-05T03:54:33.256Z,646.58
2018-11-05T03:57:02.733Z,641.80
2018-11-05T03:59:33.113Z,634.83
2018-11-05T04:02:02.865Z,642.12
2018-11-05T04:04:32.424Z,642.27
2018-11-05T04:07:01.892Z,646.58
2018-11-05T04:09:31.510Z,644.95
2018-11-05T04:12:00.929Z,633.92
2018-11-05T04:14:30.440Z,643.15
2018-11-05T04:18:22.657Z,624.98
2018-11-05T04:20:52.238Z,624.45
2018-11-05T04:23:21.700Z,615.77
2018-11-05T04:25:51.252Z,618.50
2018-11-05T04:28:20.995Z,616.88
2018-11-05T04:30:50.578Z,624.30
2018-11-05T04:33:21.031Z,627.02
2018-11-05T04:35:50.581Z,625.23
2018-11-05T04:38:20.042Z,622.70
2018-11-05T04:40:51.204Z,613.05
2018-11-05T04:43:23.818Z,622.63
2018-11-05T04:45:54.218Z,620.67
2018-11-05T04:48:23.610Z,625.65
2018-11-05T04:50:53.045Z,608.80
2018-11-05T04:53:22.543Z,612.00
2018-11-05T04:55:52.065Z,623.15
2018-11-05T04:58:21.418Z,618.42
2018-11-05T05:00:51.944Z,616.20
2018-11-05T05:03:21.507Z,614.25
2018-11-05T05:05:50.982Z,610.97
2018-11-05T05:08:20.792Z,607.40
2018-11-05T05:10:54.241Z,605.13
2018-11-05T05:13:23.682Z,600.92
2018-11-05T05:15:53.128Z,598.65
2018-11-05T05:18:22.645Z,598.70
2018-11-05T05:20:52.159Z,604.17
2018-11-05T05:23:21.641Z,594.58
2018-11-05T05:25:51.183Z,594.17
2018-11-05T05:28:20.761Z,599.62
2018-11-05T05:30:50.152Z,587.08
2018-11-05T05:33:19.606Z,588.25
2018-11-05T05:35:49.069Z,591.73
2018-11-05T05:38:19.611Z,604.83
2018-11-05T05:40:49.105Z,602.83
2018-11-05T05:43:18.567Z,589.67
2018-11-05T05:45:48.012Z,601.60
2018-11-05T05:48:18.527Z,600.10
2018-11-05T05:50:48.078Z,600.53
2018-11-05T05:53:17.530Z,612.83
2018-11-05T05:55:47.094Z,602.90
2018-11-05T05:58:17.619Z,608.95
2018-11-05T06:00:47.221Z,592.92
2018-11-05T06:03:16.876Z,600.05
2018-11-05T06:05:47.407Z,599.15
2018-11-05T06:08:16.890Z,601.05
2018-11-05T06:10:46.398Z,594.58
2018-11-05T06:13:16.932Z,601.20
2018-11-05T06:15:46.474Z,609.08
2018-11-05T06:18:15.988Z,614.13
2018-11-05T06:20:45.483Z,607.02
2018-11-05T06:23:14.964Z,590.50
2018-11-05T06:25:44.390Z,606.58
2018-11-05T06:28:13.853Z,603.85
2018-11-05T06:30:43.497Z,605.20
2018-11-05T06:33:13.967Z,601.80
2018-11-05T06:35:44.179Z,613.37
2018-11-05T06:38:16.683Z,606.92
2018-11-05T06:40:46.206Z,632.80
2018-11-05T06:43:15.677Z,620.27
2018-11-05T06:45:45.240Z,631.35
2018-11-05T06:48:15.745Z,639.27
2018-11-05T06:50:45.290Z,631.97
2018-11-05T06:53:14.884Z,633.92
2018-11-05T06:55:44.399Z,638.40
2018-11-05T06:58:13.953Z,645.42
2018-11-05T07:00:44.426Z,637.67
2018-11-05T07:03:13.861Z,636.70
2018-11-05T07:05:43.420Z,650.15
2018-11-05T07:08:12.830Z,652.92
2018-11-05T07:10:42.437Z,647.60
2018-11-05T07:13:11.905Z,642.90
2018-11-05T07:15:41.453Z,657.10
2018-11-05T07:18:11.039Z,642.63
2018-11-05T07:20:40.495Z,639.25
2018-11-05T07:23:09.985Z,644.97
2018-11-05T07:25:39.396Z,647.95
2018-11-05T07:28:09.498Z,649.83
2018-11-05T07:30:38.893Z,636.12
2018-11-05T07:33:08.356Z,637.25
2018-11-05T07:35:37.829Z,634.90
2018-11-05T07:38:07.379Z,634.42
2018-11-05T07:40:36.861Z,639.27
2018-11-05T07:43:06.336Z,635.33
2018-11-05T07:45:35.796Z,633.23
2018-11-05T07:48:06.528Z,634.73
2018-11-05T07:50:35.979Z,641.43
2018-11-05T07:53:05.970Z,635.30
2018-11-05T07:55:36.376Z,641.05
2018-11-05T07:58:06.699Z,652.23
2018-11-05T08:00:41.634Z,654.23
2018-11-05T08:03:11.111Z,662.55
2018-11-05T08:05:40.657Z,668.95
2018-11-05T08:08:10.266Z,672.35
2018-11-05T08:10:40.686Z,686.92
2018-11-05T08:13:10.141Z,698.83
2018-11-05T08:15:40.716Z,703.48
2018-11-05T08:18:11.186Z,720.05
2018-11-05T08:20:42.719Z,733.55
2018-11-05T08:23:12.266Z,727.73
2018-11-05T08:25:41.819Z,730.73
2018-11-05T08:28:11.328Z,739.37
2018-11-05T08:30:40.928Z,721.35
2018-11-05T08:33:10.552Z,719.52
2018-11-05T08:35:40.087Z,715.33
2018-11-05T08:38:09.557Z,708.55
2018-11-05T08:40:39.155Z,706.65
2018-11-05T08:43:09.639Z,719.95
2018-11-05T08:45:39.175Z,718.52
2018-11-05T08:48:08.610Z,717.30
2018-11-05T08:50:38.039Z,706.45
2018-11-05T08:53:07.494Z,716.60
2018-11-05T08:55:37.035Z,701.87
2018-11-05T08:58:07.245Z,704.17
2018-11-05T09:00:42.661Z,698.97
2018-11-05T09:03:12.181Z,689.73
2018-11-05T09:05:41.749Z,686.83
2018-11-05T09:08:11.146Z,696.75
2018-11-05T09:10:40.898Z,698.83
2018-11-05T09:13:10.133Z,691.77
2018-11-05T09:15:39.619Z,693.95
2018-11-05T09:18:09.249Z,696.10
2018-11-05T09:20:39.743Z,693.40
2018-11-05T09:23:09.264Z,691.23
2018-11-05T09:25:38.782Z,689.87
2018-11-05T09:28:08.275Z,688.10
2018-11-05T09:30:37.776Z,690.60
2018-11-05T09:33:07.203Z,681.10
2018-11-05T09:35:36.679Z,677.33
2018-11-05T09:38:06.290Z,677.45
2018-11-05T09:40:35.793Z,680.87
2018-11-05T09:43:05.939Z,662.25
2018-11-05T09:45:35.492Z,663.65
2018-11-05T09:48:05.089Z,676.97
2018-11-05T09:50:34.629Z,672.52
2018-11-05T09:53:04.036Z,666.02
2018-11-05T09:55:33.536Z,672.67
2018-11-05T09:58:02.941Z,681.00
2018-11-05T10:00:32.445Z,677.17
2018-11-05T10:03:03.531Z,677.95
2018-11-05T10:05:34.909Z,681.27
2018-11-05T10:08:04.368Z,692.63
2018-11-05T10:10:34.833Z,691.80
2018-11-05T10:13:04.391Z,683.17
2018-11-05T10:15:33.884Z,696.40
2018-11-05T10:18:03.946Z,692.10
2018-11-05T10:20:33.469Z,696.85
2018-11-05T10:23:02.968Z,685.92
2018-11-05T10:25:32.503Z,685.83
2018-11-05T10:28:02.118Z,688.53
2018-11-05T10:30:31.914Z,691.17
2018-11-05T10:33:01.450Z,683.55
2018-11-05T10:35:36.222Z,680.55
2018-11-05T10:38:05.805Z,696.80
2018-11-05T10:40:36.414Z,704.98
2018-11-05T10:43:06.465Z,713.83
2018-11-05T10:45:36.025Z,700.45
2018-11-05T10:48:05.503Z,702.70
2018-11-05T10:50:35.142Z,693.10
2018-11-05T10:53:04.655Z,688.48
2018-11-05T10:55:34.154Z,685.08
2018-11-05T10:58:04.843Z,674.30
2018-11-05T11:00:39.560Z,676.92
2018-11-05T11:03:15.015Z,687.73
2018-11-05T11:05:44.577Z,701.67
2018-11-05T11:08:14.032Z,703.42
2018-11-05T11:10:43.460Z,695.77
2018-11-05T11:13:12.906Z,704.17
2018-11-05T11:15:42.388Z,695.23
2018-11-05T11:18:11.829Z,695.95
2018-11-05T11:20:41.409Z,691.10
2018-11-05T11:23:11.028Z,678.25
2018-11-05T11:25:41.484Z,676.10
2018-11-05T11:28:11.075Z,680.20
2018-11-05T11:30:40.606Z,679.27
2018-11-05T11:33:10.154Z,683.72
2018-11-05T11:37:20.235Z,711.55
2018-11-05T11:39:49.611Z,709.80
2018-11-05T11:42:19.059Z,718.90
2018-11-05T11:44:48.586Z,711.73
2018-11-05T11:47:18.021Z,711.10
2018-11-05T11:49:47.548Z,721.60
2018-11-05T11:52:16.949Z,711.63
2018-11-05T11:54:46.479Z,714.20
2018-11-05T11:57:15.923Z,707.10
2018-11-05T11:59:45.481Z,714.67
2018-11-05T12:02:16.658Z,715.98
2018-11-05T12:04:46.077Z,720.17
2018-11-05T12:10:04.393Z,709.27
2018-11-05T12:12:33.972Z,712.05
2018-11-05T12:15:03.569Z,706.00
2018-11-05T12:17:32.966Z,699.55
2018-11-05T12:20:02.567Z,698.58
2018-11-05T12:22:32.029Z,681.40
2018-11-05T12:25:01.555Z,697.42
2018-11-05T12:27:31.023Z,694.07
2018-11-05T12:30:01.493Z,691.20
2018-11-05T12:32:30.948Z,690.08
2018-11-05T12:35:00.574Z,682.35
2018-11-05T12:37:30.077Z,690.23
2018-11-05T12:40:00.589Z,688.17
2018-11-05T12:42:30.003Z,693.40
2018-11-05T12:44:59.462Z,700.50
2018-11-05T12:47:28.996Z,706.52
2018-11-05T12:49:58.540Z,703.62
2018-11-05T12:52:28.022Z,697.50
2018-11-05T12:54:59.500Z,704.15
2018-11-05T12:57:28.891Z,705.13
2018-11-05T12:59:58.316Z,707.67
2018-11-05T13:02:27.891Z,708.72
2018-11-05T13:04:57.361Z,709.25
2018-11-05T13:07:26.762Z,711.28
2018-11-05T13:09:56.234Z,718.85
2018-11-05T13:12:25.848Z,728.95
2018-11-05T13:14:55.341Z,730.03
2018-11-05T13:17:24.882Z,738.40
2018-11-05T13:19:54.355Z,744.35
2018-11-05T13:22:23.929Z,741.45
2018-11-05T13:24:53.261Z,747.80
2018-11-05T13:27:23.683Z,750.27
2018-11-05T13:29:53.344Z,755.48
2018-11-05T13:32:22.852Z,749.20
2018-11-05T13:34:52.343Z,743.77
2018-11-05T13:37:22.045Z,743.67
2018-11-05T13:39:51.330Z,728.48
2018-11-05T13:42:20.720Z,724.52
2018-11-05T13:44:50.247Z,723.75
2018-11-05T13:47:20.282Z,734.48
2018-11-05T13:49:49.533Z,728.95
2018-11-05T13:52:20.085Z,729.38
2018-11-05T13:54:49.684Z,722.63
2018-11-05T13:57:18.929Z,725.77
2018-11-05T13:59:48.335Z,738.35
2018-11-05T14:02:19.602Z,741.52
2018-11-05T14:04:49.691Z,744.28
2018-11-05T14:07:19.099Z,743.33
2018-11-05T14:09:48.638Z,754.10
2018-11-05T14:12:18.120Z,755.08
2018-11-05T14:14:48.561Z,749.10
2018-11-05T14:17:19.032Z,746.50
2018-11-05T14:19:48.554Z,737.30
2018-11-05T14:22:19.005Z,734.87
2018-11-05T14:24:48.563Z,728.15
2018-11-05T14:27:18.067Z,724.20
2018-11-05T14:29:48.096Z,709.43
2018-11-05T14:32:17.081Z,692.77
2018-11-05T14:34:47.164Z,697.70
2018-11-05T14:37:16.639Z,687.97
2018-11-05T14:39:46.071Z,679.83
2018-11-05T14:42:16.685Z,686.37
2018-11-05T14:44:46.221Z,682.47
2018-11-05T14:47:16.242Z,684.08
2018-11-05T14:49:45.651Z,675.80
2018-11-05T14:52:15.107Z,677.27
2018-11-05T14:54:44.731Z,679.93
2018-11-05T14:57:15.224Z,672.95
2018-11-05T14:59:44.691Z,672.52
2018-11-05T15:02:19.495Z,669.75
2018-11-05T15:04:49.456Z,675.38
2018-11-05T15:07:19.042Z,666.17
2018-11-05T15:09:48.524Z,662.90
2018-11-05T15:12:18.043Z,663.00
2018-11-05T15:14:48.445Z,667.15
2018-11-05T15:17:18.545Z,660.27
2018-11-05T15:19:48.349Z,654.02
2018-11-05T15:22:18.452Z,660.60
2018-11-05T15:24:48.084Z,654.08
2018-11-05T15:27:17.568Z,660.42
2018-11-05T15:29:46.962Z,656.37
2018-11-05T15:32:16.464Z,656.85
2018-11-05T15:34:46.915Z,656.15
2018-11-05T15:37:16.300Z,652.47
2018-11-05T15:39:46.748Z,648.13
2018-11-05T15:42:16.214Z,647.47
2018-11-05T15:44:45.766Z,640.47
2018-11-05T15:47:15.204Z,652.30
2018-11-05T15:49:44.588Z,634.42
2018-11-05T15:52:14.339Z,624.20
2018-11-05T15:54:43.584Z,623.23
2018-11-05T15:57:13.013Z,628.85
2018-11-05T15:59:42.413Z,628.30
2018-11-05T16:02:13.268Z,616.20
2018-11-05T16:04:43.574Z,616.62
2018-11-05T16:07:13.005Z,611.45
2018-11-05T16:09:42.505Z,603.33
2018-11-05T16:12:11.901Z,603.42
2018-11-05T16:14:41.354Z,596.53
2018-11-05T16:17:11.143Z,606.58
2018-11-05T16:19:40.679Z,600.30
2018-11-05T16:22:11.145Z,591.80
2018-11-05T16:24:40.655Z,600.17
2018-11-05T16:27:10.096Z,606.43
2018-11-05T16:29:40.298Z,602.65
2018-11-05T16:32:09.812Z,597.65
2018-11-05T16:34:40.462Z,593.77
2018-11-05T16:37:11.943Z,586.35
2018-11-05T16:39:41.502Z,588.33
2018-11-05T16:42:10.986Z,582.55
2018-11-05T16:44:40.461Z,576.00
2018-11-05T16:47:09.994Z,578.42
2018-11-05T16:49:40.235Z,582.87
2018-11-05T16:52:10.751Z,578.42
2018-11-05T16:54:40.290Z,573.37
2018-11-05T16:57:09.846Z,583.55
2018-11-05T16:59:39.365Z,580.75
2018-11-05T17:02:13.358Z,572.55
2018-11-05T17:04:43.335Z,583.30
2018-11-05T17:07:12.787Z,571.20
2018-11-05T17:09:42.794Z,570.52
2018-11-05T17:12:12.210Z,571.33
2018-11-05T17:14:45.524Z,570.67
2018-11-05T17:17:15.038Z,566.77
2018-11-05T17:19:44.539Z,574.80
2018-11-05T17:22:14.721Z,568.35
2018-11-05T17:24:44.133Z,565.42
2018-11-05T17:27:13.718Z,563.50
2018-11-05T17:29:43.280Z,558.53
2018-11-05T17:32:12.764Z,558.62
2018-11-05T17:34:42.171Z,550.95
2018-11-05T17:37:11.669Z,561.62
2018-11-05T17:39:42.224Z,556.00
2018-11-05T17:42:11.609Z,548.62
2018-11-05T17:44:41.098Z,554.62
2018-11-05T17:47:11.540Z,555.65
2018-11-05T17:49:41.092Z,548.17
2018-11-05T17:52:10.585Z,549.07
2018-11-05T17:54:40.105Z,550.98
2018-11-05T17:57:09.491Z,550.25
2018-11-05T17:59:38.935Z,548.55
2018-11-05T18:02:10.319Z,556.05
2018-11-05T18:04:40.365Z,557.62
2018-11-05T18:07:10.860Z,550.53
2018-11-05T18:09:41.362Z,551.00
2018-11-05T18:12:10.935Z,550.70
2018-11-05T18:14:40.398Z,548.30
2018-11-05T18:17:09.963Z,546.92
2018-11-05T18:19:39.373Z,548.37
2018-11-05T18:22:08.825Z,546.20
2018-11-05T18:24:38.334Z,539.52
2018-11-05T18:27:11.593Z,535.87
2018-11-05T18:29:41.046Z,533.72
2018-11-05T18:32:14.797Z,532.42
2018-11-05T18:34:44.316Z,543.25
2018-11-05T18:37:14.337Z,540.65
2018-11-05T18:39:44.083Z,533.07
2018-11-05T18:42:13.561Z,533.53
2018-11-05T18:44:43.177Z,540.13
2018-11-05T18:47:12.750Z,531.37
2018-11-05T18:49:42.275Z,533.00
2018-11-05T18:52:11.757Z,532.83
2018-11-05T18:54:41.289Z,540.75
2018-11-05T18:57:10.717Z,526.20
2018-11-05T18:59:40.153Z,524.67
2018-11-05T19:02:15.895Z,536.83
2018-11-05T19:04:45.485Z,534.17
2018-11-05T19:07:14.945Z,530.35
2018-11-05T19:09:44.452Z,533.33
2018-11-05T19:12:13.890Z,545.98
2018-11-05T19:14:43.354Z,535.23
2018-11-05T19:17:12.951Z,540.45
2018-11-05T19:19:42.398Z,552.37
2018-11-05T19:22:11.828Z,547.55
2018-11-05T19:24:41.240Z,546.72
2018-11-05T19:27:10.721Z,552.45
2018-11-05T19:29:40.309Z,552.28
2018-11-05T19:32:09.750Z,544.25
2018-11-05T19:34:39.199Z,551.73
2018-11-05T19:37:09.074Z,549.97
2018-11-05T19:39:38.532Z,556.13
2018-11-05T19:42:08.151Z,552.45
2018-11-05T19:44:38.311Z,551.25
2018-11-05T19:47:07.755Z,555.50
2018-11-05T19:49:37.477Z,554.08
2018-11-05T19:52:06.820Z,555.87
2018-11-05T19:54:36.428Z,571.50
2018-11-05T19:57:06.072Z,564.30
2018-11-05T19:59:35.491Z,553.12
2018-11-05T20:02:05.745Z,551.48
2018-11-05T20:04:36.026Z,551.37
2018-11-05T20:07:05.481Z,552.05
2018-11-05T20:09:35.068Z,546.48
2018-11-05T20:12:04.806Z,552.52
2018-11-05T20:14:34.225Z,556.40
2018-11-05T20:17:03.700Z,565.17
2018-11-05T20:19:33.140Z,558.77
2018-11-05T20:22:02.703Z,563.05
2018-11-05T20:24:32.153Z,559.00
2018-11-05T20:27:01.576Z,572.95
2018-11-05T20:29:32.112Z,566.05
2018-11-05T20:32:01.858Z,571.58
2018-11-05T20:34:35.058Z,568.58
2018-11-05T20:37:04.346Z,569.88
2018-11-05T20:39:33.773Z,571.87
2018-11-05T20:42:03.374Z,584.08
2018-11-05T20:44:32.826Z,586.15
2018-11-05T20:47:02.459Z,599.40
2018-11-05T20:49:32.682Z,599.85
2018-11-05T20:52:02.179Z,601.63
2018-11-05T20:54:32.653Z,601.95
2018-11-05T20:57:02.885Z,608.38
2018-11-05T20:59:32.427Z,607.90
2018-11-05T21:02:02.998Z,607.77
2018-11-05T21:04:32.419Z,615.90
2018-11-05T21:07:01.842Z,604.27
2018-11-05T21:09:31.347Z,613.42
2018-11-05T21:12:00.831Z,625.80
2018-11-05T21:14:30.351Z,623.75
2018-11-05T21:16:59.945Z,616.67
2018-11-05T21:19:30.412Z,613.73
2018-11-05T21:22:00.013Z,609.92
2018-11-05T21:24:29.314Z,606.92
2018-11-05T21:26:58.858Z,605.42
2018-11-05T21:29:28.364Z,609.22
2018-11-05T21:31:57.877Z,602.67
2018-11-05T21:34:27.333Z,609.58
2018-11-05T21:36:56.935Z,597.92
2018-11-05T21:39:26.382Z,600.48
2018-11-05T21:41:56.771Z,605.55
2018-11-05T21:44:26.271Z,593.70
2018-11-05T21:46:55.838Z,592.33
2018-11-05T21:49:25.256Z,582.60
2018-11-05T21:51:54.774Z,580.10
2018-11-05T21:54:24.221Z,581.92
2018-11-05T21:56:53.742Z,582.95
2018-11-05T21:59:23.228Z,586.00
2018-11-05T22:01:52.765Z,573.70
2018-11-05T22:04:22.291Z,567.05
2018-11-05T22:06:51.643Z,576.55
2018-11-05T22:09:22.095Z,571.25
2018-11-05T22:11:51.578Z,578.88
2018-11-05T22:14:21.121Z,572.23
2018-11-05T22:16:50.551Z,585.05
2018-11-05T22:19:20.004Z,588.65
2018-11-05T22:21:49.443Z,591.25
2018-11-05T22:24:19.004Z,585.78
2018-11-05T22:26:48.388Z,603.52
2018-11-05T22:29:18.860Z,615.12
2018-11-05T22:31:48.321Z,611.80
2018-11-05T22:34:17.910Z,610.50
2018-11-05T22:36:47.343Z,621.33
2018-11-05T22:39:17.595Z,625.30
2018-11-05T22:41:47.603Z,644.77
2018-11-05T22:44:17.113Z,660.02
2018-11-05T22:46:46.642Z,684.08
2018-11-05T22:49:16.202Z,713.77
2018-11-05T22:51:46.400Z,733.27
2018-11-05T22:54:16.015Z,752.75
2018-11-05T22:56:45.459Z,770.15
2018-11-05T22:59:14.960Z,797.20
2018-11-05T23:01:49.584Z,809.15
2018-11-05T23:04:19.108Z,824.62
2018-11-05T23:06:48.987Z,831.63
2018-11-05T23:09:18.483Z,853.17
2018-11-05T23:11:48.227Z,857.58
2018-11-05T23:14:17.755Z,863.95
2018-11-05T23:16:47.231Z,880.50
2018-11-05T23:19:16.654Z,880.67
2018-11-05T23:21:46.218Z,880.80
2018-11-05T23:24:16.733Z,851.07
2018-11-05T23:26:46.247Z,829.40
2018-11-05T23:29:16.799Z,807.23
2018-11-05T23:31:46.326Z,794.50
2018-11-05T23:34:15.874Z,812.25
2018-11-05T23:36:45.413Z,823.83
2018-11-05T23:39:14.960Z,833.17
2018-11-05T23:41:45.460Z,856.10
2018-11-05T23:44:14.954Z,873.00
2018-11-05T23:46:44.415Z,878.45
2018-11-05T23:49:13.986Z,892.90
2018-11-05T23:51:43.493Z,899.87
2018-11-05T23:54:13.884Z,904.65
2018-11-05T23:56:43.308Z,918.30
2018-11-05T23:59:12.746Z,925.10
